Time;durP1;ratioP1;P1;durP2;ratioP2;P2;SDS_P1;SDS_P2;PMS_P1;PMS_P2;Temp;Humidity;BMP_temperature;BMP_pressure;BME280_temperature;BME280_humidity;BME280_pressure;Samples;Min_cycle;Max_cycle;Signal;HPM_P1;HPM_P2
2021/03/20 00:00:53;;;;;;;10.20;5.57;;;7.40;63.40;;;;;;5045129;28;20033;-64
2021/03/20 00:03:19;;;;;;;11.00;5.63;;;7.40;63.50;;;;;;5047761;28;20049;-63
2021/03/20 00:05:45;;;;;;;10.03;5.10;;;7.40;64.00;;;;;;5069599;28;20033;-63
2021/03/20 00:08:12;;;;;;;8.80;5.50;;;7.40;63.40;;;;;;5052424;28;20098;-63
2021/03/20 00:10:39;;;;;;;11.43;6.03;;;7.40;63.40;;;;;;5049479;28;20101;-64
2021/03/20 00:13:05;;;;;;;7.97;5.70;;;7.30;63.80;;;;;;5048217;28;20048;-64
2021/03/20 00:15:31;;;;;;;8.67;5.13;;;7.40;63.80;;;;;;5041148;28;20042;-64
2021/03/20 00:17:57;;;;;;;8.50;5.53;;;7.30;63.50;;;;;;5049262;28;20455;-63
2021/03/20 00:20:35;;;;;;;8.70;5.57;;;7.30;63.60;;;;;;5045466;28;20036;-63
2021/03/20 00:23:01;;;;;;;9.30;6.13;;;7.30;63.60;;;;;;5030581;28;20069;-63
2021/03/20 00:25:27;;;;;;;9.30;4.97;;;7.30;64.10;;;;;;5046340;28;20075;-63
2021/03/20 00:27:55;;;;;;;11.98;6.68;;;7.50;63.30;;;;;;5059778;28;20453;-64
2021/03/20 00:30:21;;;;;;;11.17;5.20;;;7.50;63.80;;;;;;5055035;28;20507;-63
2021/03/20 00:32:47;;;;;;;11.00;6.13;;;7.50;63.00;;;;;;5051997;28;20538;-62
2021/03/20 00:35:15;;;;;;;9.47;5.47;;;7.50;63.50;;;;;;5044502;28;20171;-62
2021/03/20 00:37:40;;;;;;;9.53;4.60;;;7.40;63.40;;;;;;5070546;28;20462;-62
2021/03/20 00:40:09;;;;;;;9.52;5.72;;;7.50;63.00;;;;;;5056629;28;20067;-62
2021/03/20 00:42:35;;;;;;;8.73;5.70;;;7.40;62.90;;;;;;5047539;28;20037;-63
2021/03/20 00:45:01;;;;;;;9.98;5.57;;;7.40;63.40;;;;;;5048624;28;20114;-62
2021/03/20 00:47:26;;;;;;;9.50;5.28;;;7.40;62.70;;;;;;5048070;28;20656;-62
2021/03/20 00:49:52;;;;;;;8.38;5.72;;;7.40;62.70;;;;;;5040862;28;20478;-63
2021/03/20 00:52:18;;;;;;;9.70;5.22;;;7.40;63.20;;;;;;5062093;28;20454;-63
2021/03/20 00:54:43;;;;;;;8.55;5.15;;;7.40;63.10;;;;;;5080119;28;20112;-63
2021/03/20 00:57:09;;;;;;;9.70;5.80;;;7.40;63.00;;;;;;5049091;28;20029;-63
2021/03/20 00:59:34;;;;;;;9.50;6.23;;;7.20;63.00;;;;;;5046315;28;20096;-63
2021/03/20 01:02:00;;;;;;;8.40;4.93;;;7.10;63.30;;;;;;5049144;28;20415;-63
2021/03/20 01:04:26;;;;;;;9.50;5.07;;;7.00;63.50;;;;;;5042889;28;20471;-63
2021/03/20 01:06:52;;;;;;;9.50;6.03;;;7.00;63.50;;;;;;5030865;28;20420;-63
2021/03/20 01:09:18;;;;;;;10.88;5.10;;;7.00;63.00;;;;;;5046273;28;20024;-63
2021/03/20 01:11:43;;;;;;;9.77;5.33;;;7.00;63.00;;;;;;5055473;28;20398;-63
2021/03/20 01:14:09;;;;;;;10.10;5.53;;;7.00;63.50;;;;;;5048440;28;20068;-63
2021/03/20 01:16:35;;;;;;;8.70;5.27;;;6.90;63.40;;;;;;5048996;28;20060;-63
2021/03/20 01:19:01;;;;;;;8.90;5.27;;;7.00;62.90;;;;;;5048013;28;20029;-63
2021/03/20 01:21:26;;;;;;;8.77;5.17;;;6.90;63.30;;;;;;5049412;28;20037;-63
2021/03/20 01:23:53;;;;;;;8.30;5.50;;;6.90;62.70;;;;;;5046267;28;20057;-63
2021/03/20 01:26:18;;;;;;;8.67;5.53;;;6.90;63.10;;;;;;5062283;28;20037;-63
2021/03/20 01:28:44;;;;;;;9.73;5.80;;;7.00;62.50;;;;;;5043833;28;20041;-63
2021/03/20 01:31:13;;;;;;;9.63;5.67;;;6.90;63.00;;;;;;5050945;28;20068;-63
2021/03/20 01:33:38;;;;;;;9.63;5.27;;;6.90;62.90;;;;;;5049510;28;20065;-63
2021/03/20 01:36:05;;;;;;;7.90;5.10;;;6.90;62.80;;;;;;5048823;28;20402;-62
2021/03/20 01:38:31;;;;;;;9.67;6.30;;;6.70;62.40;;;;;;5037988;28;20141;-63
2021/03/20 01:41:03;;;;;;;9.03;5.47;;;6.60;62.90;;;;;;5043137;28;20037;-63
2021/03/20 01:43:31;;;;;;;7.83;4.90;;;6.60;62.40;;;;;;5039874;28;20120;-63
2021/03/20 01:46:35;;;;;;;8.00;4.73;;;6.60;62.40;;;;;;5046874;28;20104;-63
2021/03/20 01:49:10;;;;;;;7.88;4.75;;;6.60;62.30;;;;;;5058439;28;20034;-63
2021/03/20 01:51:35;;;;;;;9.40;4.70;;;6.60;62.20;;;;;;5045495;28;20766;-63
2021/03/20 01:54:01;;;;;;;9.53;5.40;;;6.60;62.70;;;;;;5046882;28;20387;-63
2021/03/20 01:56:35;;;;;;;9.00;5.27;;;6.70;62.30;;;;;;5034535;28;20048;-63
2021/03/20 01:59:01;;;;;;;11.97;5.27;;;6.60;62.20;;;;;;5048711;28;20025;-63
2021/03/20 02:01:30;;;;;;;9.23;4.33;;;6.60;61.90;;;;;;5046260;28;20044;-62
2021/03/20 02:03:57;;;;;;;8.37;4.87;;;6.50;62.40;;;;;;5039557;28;20060;-63
2021/03/20 02:06:23;;;;;;;9.30;4.60;;;6.60;62.30;;;;;;5052825;28;20203;-63
2021/03/20 02:08:51;;;;;;;7.37;4.60;;;6.60;62.10;;;;;;5051716;28;20057;-63
2021/03/20 02:11:43;;;;;;;9.37;5.03;;;6.60;61.80;;;;;;5064935;28;20085;-63
2021/03/20 02:14:46;;;;;;;9.20;5.40;;;6.60;61.80;;;;;;5051354;28;20510;-63
2021/03/20 02:17:37;;;;;;;9.53;4.67;;;6.60;60.80;;;;;;5038671;28;20064;-64
2021/03/20 02:20:21;;;;;;;7.57;4.10;;;6.60;60.80;;;;;;5033151;28;20033;-63
2021/03/20 02:22:49;;;;;;;11.82;5.13;;;6.60;61.30;;;;;;5037164;28;20033;-63
2021/03/20 02:25:42;;;;;;;7.93;4.00;;;6.60;60.80;;;;;;5051615;28;20450;-63
2021/03/20 02:28:14;;;;;;;9.60;4.97;;;6.60;60.80;;;;;;5059525;28;20025;-63
2021/03/20 02:31:03;;;;;;;10.50;4.57;;;6.50;61.20;;;;;;5067829;28;20036;-63
2021/03/20 02:34:04;;;;;;;7.33;4.37;;;6.50;60.80;;;;;;5048235;28;20366;-63
2021/03/20 02:36:51;;;;;;;8.87;4.80;;;6.50;61.40;;;;;;5051051;28;20037;-63
2021/03/20 02:39:21;;;;;;;10.63;5.27;;;6.50;60.90;;;;;;5067286;28;20059;-63
2021/03/20 02:42:06;;;;;;;7.40;4.60;;;6.40;61.40;;;;;;5067671;28;20107;-63
2021/03/20 02:44:40;;;;;;;8.97;4.73;;;6.50;60.80;;;;;;5060724;28;20097;-64
2021/03/20 02:47:09;;;;;;;6.97;3.87;;;6.40;60.50;;;;;;5051103;28;20074;-64
2021/03/20 02:49:59;;;;;;;10.00;4.67;;;6.30;61.00;;;;;;5050242;28;20394;-64
2021/03/20 02:52:31;;;;;;;10.30;5.17;;;6.30;61.10;;;;;;5065698;28;20120;-64
2021/03/20 02:55:21;;;;;;;9.83;4.53;;;6.30;61.10;;;;;;5051381;28;20479;-63
2021/03/20 02:58:09;;;;;;;8.87;4.90;;;6.30;60.70;;;;;;5051315;28;20136;-64
2021/03/20 03:00:57;;;;;;;8.43;4.87;;;6.20;60.90;;;;;;5043627;28;20419;-63
2021/03/20 03:03:29;;;;;;;9.10;5.03;;;6.30;61.10;;;;;;5048290;28;20048;-63
2021/03/20 03:06:14;;;;;;;8.77;4.43;;;6.30;61.10;;;;;;5051637;28;20057;-64
2021/03/20 03:08:46;;;;;;;8.07;4.60;;;6.20;61.60;;;;;;5048408;28;20033;-64
2021/03/20 03:11:35;;;;;;;9.07;5.27;;;6.20;61.30;;;;;;5050736;28;20025;-64
2021/03/20 03:14:14;;;;;;;7.77;4.97;;;6.20;61.50;;;;;;5050886;28;20029;-64
2021/03/20 03:16:52;;;;;;;8.80;4.97;;;6.20;61.50;;;;;;5051071;28;20025;-63
2021/03/20 03:19:29;;;;;;;7.97;5.03;;;6.20;61.60;;;;;;5042801;28;20029;-64
2021/03/20 03:21:58;;;;;;;10.37;5.50;;;6.10;62.10;;;;;;5049444;28;20514;-63
2021/03/20 03:24:26;;;;;;;10.73;4.93;;;6.10;61.60;;;;;;5045860;28;20033;-64
2021/03/20 03:26:59;;;;;;;10.40;6.47;;;6.10;61.90;;;;;;5031375;28;20032;-64
2021/03/20 03:29:29;;;;;;;9.70;5.10;;;6.10;61.90;;;;;;5037765;28;20460;-64
2021/03/20 03:32:04;;;;;;;9.00;5.17;;;6.00;61.80;;;;;;5030951;28;20094;-64
2021/03/20 03:34:48;;;;;;;9.13;6.30;;;6.00;62.00;;;;;;5050928;28;20115;-64
2021/03/20 03:37:20;;;;;;;9.83;5.10;;;6.00;62.10;;;;;;5041569;28;20114;-64
2021/03/20 03:39:52;;;;;;;9.00;5.53;;;6.00;62.10;;;;;;5049693;28;20172;-64
2021/03/20 03:42:21;;;;;;;9.27;5.83;;;5.90;62.50;;;;;;5042361;28;20040;-63
2021/03/20 03:44:48;;;;;;;9.40;5.47;;;5.90;62.20;;;;;;5050208;28;20040;-64
2021/03/20 03:47:23;;;;;;;8.73;5.47;;;5.90;62.70;;;;;;5047988;28;20040;-64
2021/03/20 03:49:52;;;;;;;9.47;5.17;;;5.80;62.70;;;;;;5030892;28;20052;-63
2021/03/20 03:52:17;;;;;;;12.17;6.53;;;5.80;62.70;;;;;;5047666;28;20036;-63
2021/03/20 03:54:43;;;;;;;10.30;6.43;;;5.80;62.80;;;;;;5065749;28;20024;-64
2021/03/20 03:57:39;;;;;;;11.13;5.97;;;5.80;62.90;;;;;;5040113;28;20035;-64
2021/03/20 04:00:09;;;;;;;9.37;5.50;;;5.80;63.00;;;;;;5052605;28;20490;-64
2021/03/20 04:02:34;;;;;;;10.40;5.83;;;5.80;63.10;;;;;;5049198;28;20029;-63
2021/03/20 04:05:11;;;;;;;9.67;5.40;;;5.80;63.10;;;;;;5049799;28;20476;-63
2021/03/20 04:08:03;;;;;;;10.50;5.60;;;5.80;62.60;;;;;;5050650;28;20073;-63
2021/03/20 04:10:49;;;;;;;10.50;6.63;;;5.70;63.00;;;;;;5044442;28;20047;-63
2021/03/20 04:13:44;;;;;;;9.07;4.83;;;5.70;62.80;;;;;;5041748;28;20473;-63
2021/03/20 04:16:15;;;;;;;7.63;4.70;;;5.70;62.90;;;;;;5043271;28;20103;-63
2021/03/20 04:18:56;;;;;;;9.13;5.10;;;5.70;62.20;;;;;;5030603;28;20032;-63
2021/03/20 04:21:35;;;;;;;10.53;6.10;;;5.70;62.70;;;;;;5043833;28;20037;-62
2021/03/20 04:24:28;;;;;;;9.30;5.37;;;5.60;62.60;;;;;;5044777;28;20041;-62
2021/03/20 04:27:09;;;;;;;7.90;4.93;;;5.60;62.60;;;;;;5051498;28;20459;-63
2021/03/20 04:29:46;;;;;;;8.60;5.10;;;5.60;62.50;;;;;;5049472;28;20033;-63
2021/03/20 04:32:18;;;;;;;8.17;4.90;;;5.60;62.60;;;;;;5059851;28;20134;-63
2021/03/20 04:35:19;;;;;;;8.30;5.07;;;5.60;62.30;;;;;;5057134;28;20040;-63
2021/03/20 04:37:48;;;;;;;9.00;5.33;;;5.60;62.90;;;;;;5063241;28;20029;-63
2021/03/20 04:40:41;;;;;;;8.93;5.43;;;5.60;62.70;;;;;;5049628;28;20044;-62
2021/03/20 04:43:09;;;;;;;10.80;6.03;;;5.60;62.30;;;;;;5040806;28;20033;-63
2021/03/20 04:45:40;;;;;;;11.27;5.20;;;5.50;62.70;;;;;;5065187;28;20037;-63
2021/03/20 04:48:29;;;;;;;8.87;5.00;;;5.50;62.70;;;;;;5049702;28;20123;-63
2021/03/20 04:51:05;;;;;;;18.33;5.87;;;5.50;63.40;;;;;;5042974;28;20047;-63
2021/03/20 04:53:31;;;;;;;10.23;6.00;;;5.50;62.90;;;;;;5047913;28;20060;-64
2021/03/20 04:56:04;;;;;;;9.53;5.10;;;5.50;63.00;;;;;;5047798;28;20071;-63
2021/03/20 04:58:40;;;;;;;7.97;4.80;;;5.50;63.60;;;;;;5049282;28;20037;-64
2021/03/20 05:01:31;;;;;;;9.83;5.80;;;5.50;62.20;;;;;;5044074;28;20040;-64
2021/03/20 05:04:22;;;;;;;8.57;5.00;;;5.50;62.70;;;;;;5064345;28;20052;-63
2021/03/20 05:06:49;;;;;;;8.70;5.07;;;5.50;62.10;;;;;;5046996;28;20040;-64
2021/03/20 05:09:24;;;;;;;10.43;4.47;;;5.40;62.50;;;;;;5048860;28;20048;-64
2021/03/20 05:11:56;;;;;;;9.20;5.00;;;5.40;62.50;;;;;;5048084;28;20029;-64
2021/03/20 05:14:50;;;;;;;8.30;5.23;;;5.50;62.50;;;;;;5036736;28;20078;-63
2021/03/20 05:17:18;;;;;;;11.07;6.47;;;5.40;62.60;;;;;;5038553;28;20021;-63
2021/03/20 05:19:44;;;;;;;9.63;5.33;;;5.40;62.10;;;;;;5047610;28;20035;-63
2021/03/20 05:22:23;;;;;;;8.07;4.83;;;5.30;62.60;;;;;;5049227;28;20036;-63
2021/03/20 05:24:50;;;;;;;9.87;5.27;;;5.40;62.40;;;;;;5048717;28;20052;-62
2021/03/20 05:27:21;;;;;;;10.30;5.00;;;5.30;62.90;;;;;;5062864;28;20040;-63
2021/03/20 05:29:47;;;;;;;8.83;5.30;;;5.30;63.60;;;;;;5063644;28;20126;-63
2021/03/20 05:32:17;;;;;;;11.27;5.40;;;5.30;62.50;;;;;;5052423;28;20032;-63
2021/03/20 05:34:44;;;;;;;10.20;5.77;;;5.30;63.00;;;;;;5045185;28;20057;-64
2021/03/20 05:37:20;;;;;;;8.83;4.83;;;5.30;62.70;;;;;;5045524;28;20750;-63
2021/03/20 05:39:47;;;;;;;9.63;5.20;;;5.20;63.10;;;;;;5053156;28;20032;-64
2021/03/20 05:42:39;;;;;;;9.87;5.33;;;5.20;63.10;;;;;;5052675;28;20509;-63
2021/03/20 05:45:29;;;;;;;8.97;5.80;;;5.20;63.30;;;;;;5067965;28;20033;-62
2021/03/20 05:48:18;;;;;;;10.07;5.20;;;5.20;63.20;;;;;;5053493;28;20052;-63
2021/03/20 05:51:11;;;;;;;15.37;6.17;;;5.20;63.20;;;;;;5052418;28;20039;-63
2021/03/20 05:53:48;;;;;;;9.63;5.90;;;5.30;63.30;;;;;;5067428;28;20478;-63
2021/03/20 05:56:20;;;;;;;9.30;5.73;;;5.20;63.10;;;;;;5047758;28;20459;-63
2021/03/20 05:58:55;;;;;;;9.53;5.77;;;5.30;63.20;;;;;;5047067;28;20100;-63
2021/03/20 06:01:24;;;;;;;11.23;5.90;;;5.20;62.80;;;;;;5044567;28;20110;-63
2021/03/20 06:04:30;;;;;;;9.10;5.60;;;5.20;63.90;;;;;;5050946;28;20328;-63
2021/03/20 06:07:19;;;;;;;9.00;5.57;;;5.20;63.40;;;;;;5052231;28;20028;-63
2021/03/20 06:10:04;;;;;;;10.50;5.93;;;5.20;63.40;;;;;;5054761;28;20035;-63
2021/03/20 06:12:35;;;;;;;9.63;5.73;;;5.30;63.20;;;;;;5040611;28;20028;-63
2021/03/20 06:15:38;;;;;;;10.73;5.90;;;5.20;63.60;;;;;;5065606;28;20025;-63
2021/03/20 06:18:42;;;;;;;11.50;6.53;;;5.20;63.70;;;;;;5042990;28;20118;-63
2021/03/20 06:21:16;;;;;;;12.75;6.47;;;5.20;63.20;;;;;;5049983;28;20025;-63
2021/03/20 06:23:57;;;;;;;;;;;5.20;63.70;;;;;;5052039;28;20025;-63
2021/03/20 06:26:28;;;;;;;12.30;6.43;;;5.30;63.60;;;;;;5050089;28;19913;-63
2021/03/20 06:29:02;;;;;;;10.60;5.30;;;5.50;63.40;;;;;;5053624;28;20105;-64
2021/03/20 06:31:31;;;;;;;;;;;5.60;63.10;;;;;;5048632;28;20028;-63
2021/03/20 06:34:13;;;;;;;9.40;5.17;;;5.80;61.30;;;;;;5046754;28;19954;-64
2021/03/20 06:36:48;;;;;;;7.67;5.07;;;6.00;60.80;;;;;;5048779;28;20028;-64
2021/03/20 06:39:23;;;;;;;9.43;5.70;;;6.00;61.20;;;;;;5065704;28;20358;-63
2021/03/20 06:42:03;;;;;;;8.87;4.50;;;6.20;60.60;;;;;;5063711;28;20111;-63
2021/03/20 06:44:32;;;;;;;11.87;5.30;;;6.30;59.70;;;;;;5049785;28;20241;-63
2021/03/20 06:46:58;;;;;;;12.63;5.13;;;6.50;58.30;;;;;;5044771;28;20036;-63
2021/03/20 06:49:29;;;;;;;13.80;5.70;;;6.40;58.80;;;;;;5050110;28;20105;-63
2021/03/20 06:51:57;;;;;;;9.13;4.10;;;6.40;58.00;;;;;;5058164;28;20021;-63
2021/03/20 06:54:26;;;;;;;8.67;4.27;;;6.40;57.70;;;;;;5050467;28;20408;-64
2021/03/20 06:56:52;;;;;;;11.93;4.57;;;6.30;57.20;;;;;;5048887;28;20036;-63
2021/03/20 06:59:20;;;;;;;11.60;4.37;;;6.30;57.30;;;;;;5047307;28;20090;-64
2021/03/20 07:02:15;;;;;;;11.07;4.37;;;6.40;57.00;;;;;;5062548;28;20024;-63
2021/03/20 07:05:03;;;;;;;8.43;4.13;;;6.30;57.50;;;;;;5045988;28;20142;-64
2021/03/20 07:07:45;;;;;;;7.83;3.70;;;6.40;57.20;;;;;;5047506;28;20108;-64
2021/03/20 07:10:32;;;;;;;7.10;3.77;;;7.40;55.10;;;;;;5048108;28;20048;-64
2021/03/20 07:13:06;;;;;;;6.67;3.63;;;7.50;55.40;;;;;;5064263;28;20108;-64
2021/03/20 07:15:32;;;;;;;7.30;3.30;;;9.00;52.50;;;;;;5046994;28;20052;-63
2021/03/20 07:18:29;;;;;;;7.35;3.70;;;10.80;49.00;;;;;;5046311;28;20029;-63
2021/03/20 07:20:55;;;;;;;6.75;3.38;;;13.00;42.50;;;;;;5048772;28;20021;-64
2021/03/20 07:23:21;;;;;;;7.57;2.95;;;15.10;39.00;;;;;;5042716;28;20435;-64
2021/03/20 07:25:50;;;;;;;8.70;3.50;;;16.90;34.90;;;;;;5047004;28;20037;-65
2021/03/20 07:28:21;;;;;;;7.50;3.70;;;18.50;33.40;;;;;;5065355;28;20029;-63
2021/03/20 07:31:03;;;;;;;6.47;3.13;;;19.90;30.60;;;;;;5048704;28;20033;-63
2021/03/20 07:33:33;;;;;;;5.33;2.87;;;21.10;29.30;;;;;;5048521;28;20040;-64
2021/03/20 07:36:25;;;;;;;5.95;2.90;;;21.90;28.10;;;;;;5048788;28;20282;-63
2021/03/20 07:39:09;;;;;;;5.45;3.03;;;22.90;26.70;;;;;;5045139;28;20025;-62
2021/03/20 07:42:00;;;;;;;6.50;3.20;;;23.80;26.10;;;;;;5047364;28;20123;-67
2021/03/20 07:44:46;;;;;;;5.93;3.08;;;24.40;24.70;;;;;;5049681;28;20061;-67
2021/03/20 07:47:13;;;;;;;5.47;3.10;;;25.20;24.30;;;;;;5047154;28;20128;-69
2021/03/20 07:49:39;;;;;;;5.82;3.25;;;25.60;23.70;;;;;;5060212;28;20119;-66
2021/03/20 07:52:19;;;;;;;6.45;3.03;;;26.00;23.60;;;;;;5044747;28;20590;-65
2021/03/20 07:54:45;;;;;;;6.50;3.65;;;26.50;23.10;;;;;;5047805;28;20032;-65
2021/03/20 07:57:18;;;;;;;5.43;2.63;;;26.40;22.80;;;;;;5044690;28;20170;-66
2021/03/20 07:59:49;;;;;;;6.28;3.58;;;26.80;22.90;;;;;;5046392;28;20487;-66
2021/03/20 08:02:37;;;;;;;6.32;3.45;;;27.20;22.70;;;;;;5046318;28;20361;-65
2021/03/20 08:05:27;;;;;;;6.70;3.47;;;28.10;22.30;;;;;;5045663;28;20126;-65
2021/03/20 08:07:54;;;;;;;7.68;3.67;;;28.70;22.20;;;;;;5044207;28;20606;-65
2021/03/20 08:10:28;;;;;;;5.20;2.85;;;29.30;21.10;;;;;;5051230;28;20112;-65
2021/03/20 08:13:13;;;;;;;6.10;3.08;;;29.20;21.80;;;;;;5043155;28;20107;-66
2021/03/20 08:15:51;;;;;;;8.75;3.50;;;30.00;21.30;;;;;;5020965;28;20037;-67
2021/03/20 08:18:28;;;;;;;8.35;4.47;;;29.70;21.00;;;;;;5035841;28;20040;-66
2021/03/20 08:21:14;;;;;;;6.85;3.33;;;28.10;21.60;;;;;;5044813;28;20032;-66
2021/03/20 08:24:02;;;;;;;6.22;3.58;;;26.70;22.20;;;;;;5056499;28;20044;-67
2021/03/20 08:26:28;;;;;;;6.70;3.78;;;25.90;22.90;;;;;;5047184;28;20425;-66
2021/03/20 08:29:29;;;;;;;7.65;4.10;;;25.50;23.10;;;;;;5065296;28;20037;-65
2021/03/20 08:32:19;;;;;;;9.15;3.63;;;25.00;23.30;;;;;;5041499;28;20451;-66
2021/03/20 08:35:00;;;;;;;5.57;3.67;;;23.90;24.30;;;;;;5048732;28;20028;-65
2021/03/20 08:37:42;;;;;;;6.75;3.65;;;22.70;24.90;;;;;;5048749;28;20029;-65
2021/03/20 08:40:14;;;;;;;6.10;3.80;;;21.50;25.70;;;;;;5043687;28;20086;-66
2021/03/20 08:43:10;;;;;;;7.60;3.83;;;20.50;26.60;;;;;;5047210;28;20287;-66
2021/03/20 08:45:38;;;;;;;6.68;3.95;;;19.50;27.20;;;;;;5043532;28;20047;-64
2021/03/20 08:48:20;;;;;;;6.78;3.90;;;18.60;28.40;;;;;;5047161;28;20025;-64
2021/03/20 08:51:04;;;;;;;9.30;4.47;;;17.80;28.70;;;;;;5045393;28;20052;-64
2021/03/20 08:53:57;;;;;;;8.38;3.95;;;17.10;29.60;;;;;;5048249;28;20108;-64
2021/03/20 08:56:50;;;;;;;6.82;4.22;;;16.70;30.50;;;;;;5047628;28;20049;-65
2021/03/20 08:59:24;;;;;;;7.80;4.10;;;16.60;31.00;;;;;;5045191;28;20013;-64
2021/03/20 09:01:58;;;;;;;9.57;4.75;;;16.80;30.90;;;;;;5045340;28;20060;-64
2021/03/20 09:04:28;;;;;;;7.97;4.45;;;17.50;30.30;;;;;;5049750;28;20474;-64
2021/03/20 09:07:13;;;;;;;9.15;5.22;;;17.90;29.70;;;;;;5051138;28;20025;-63
2021/03/20 09:09:47;;;;;;;7.53;4.30;;;18.60;29.40;;;;;;5055365;28;20117;-64
2021/03/20 09:12:25;;;;;;;5.97;3.83;;;19.80;28.10;;;;;;5056724;28;20036;-65
2021/03/20 09:14:51;;;;;;;6.68;4.03;;;21.50;26.90;;;;;;5055052;28;20072;-64
2021/03/20 09:17:26;;;;;;;8.43;3.95;;;23.20;25.90;;;;;;5053896;28;20501;-65
2021/03/20 09:19:57;;;;;;;7.72;4.20;;;24.60;24.80;;;;;;5055526;28;20036;-63
2021/03/20 09:22:29;;;;;;;7.45;3.80;;;25.50;23.90;;;;;;5049844;28;20036;-68
2021/03/20 09:24:59;;;;;;;7.30;4.30;;;26.40;24.00;;;;;;5049763;28;20033;-66
2021/03/20 09:28:02;;;;;;;6.70;3.95;;;27.10;23.30;;;;;;5053465;28;20017;-69
2021/03/20 09:30:29;;;;;;;5.87;3.33;;;26.90;22.70;;;;;;5049537;28;20117;-67
2021/03/20 09:32:55;;;;;;;5.30;3.00;;;25.80;23.10;;;;;;5057323;28;20283;-69
2021/03/20 09:35:25;;;;;;;5.80;3.15;;;24.70;23.70;;;;;;5052649;28;20037;-69
2021/03/20 09:37:54;;;;;;;6.15;3.83;;;24.40;24.30;;;;;;5052813;28;20282;-66
2021/03/20 09:40:53;;;;;;;6.10;3.53;;;24.40;24.10;;;;;;5043872;28;20029;-67
2021/03/20 09:43:24;;;;;;;5.20;3.28;;;24.50;24.20;;;;;;5029216;28;20053;-66
2021/03/20 09:46:27;;;;;;;6.15;3.28;;;24.50;24.30;;;;;;5053058;28;20025;-66
2021/03/20 09:48:54;;;;;;;6.00;3.42;;;24.40;24.30;;;;;;5047227;28;20243;-63
2021/03/20 09:52:09;;;;;;;6.20;3.15;;;24.30;24.00;;;;;;5067842;28;20034;-66
2021/03/20 09:54:43;;;;;;;5.22;2.88;;;23.60;24.30;;;;;;5050431;28;20355;-65
2021/03/20 09:57:17;;;;;;;7.10;3.33;;;22.90;25.30;;;;;;5047015;28;20029;-66
2021/03/20 09:59:43;;;;;;;4.90;2.90;;;22.60;25.30;;;;;;5050542;28;20401;-67
2021/03/20 10:02:09;;;;;;;5.05;2.85;;;22.10;25.20;;;;;;5054271;28;20059;-66
2021/03/20 10:04:57;;;;;;;5.45;3.13;;;21.10;25.20;;;;;;5055814;28;20445;-66
2021/03/20 10:07:23;;;;;;;6.53;3.60;;;20.50;26.10;;;;;;5054351;28;20025;-63
2021/03/20 10:09:54;;;;;;;5.18;3.30;;;20.30;26.00;;;;;;5044854;28;20053;-65
2021/03/20 10:12:43;;;;;;;6.70;4.00;;;20.60;26.50;;;;;;5054470;28;20031;-64
2021/03/20 10:15:15;;;;;;;5.68;3.35;;;21.60;25.20;;;;;;5042116;28;20048;-64
2021/03/20 10:18:08;;;;;;;7.80;4.10;;;23.00;25.60;;;;;;5049202;28;20025;-64
2021/03/20 10:20:55;;;;;;;6.45;3.92;;;25.10;23.70;;;;;;5050524;28;20050;-64
2021/03/20 10:23:42;;;;;;;6.57;3.47;;;26.70;22.90;;;;;;5050672;28;20091;-66
2021/03/20 10:26:39;;;;;;;6.32;3.50;;;28.10;22.20;;;;;;5054791;28;20104;-65
2021/03/20 10:29:24;;;;;;;5.65;3.38;;;29.10;21.30;;;;;;5050748;28;20036;-65
2021/03/20 10:31:53;;;;;;;6.32;3.60;;;28.80;21.40;;;;;;5049145;28;20414;-65
2021/03/20 10:34:25;;;;;;;6.43;3.20;;;27.90;22.00;;;;;;5049392;28;20384;-63
2021/03/20 10:37:09;;;;;;;6.50;3.88;;;26.40;22.20;;;;;;5047530;28;20063;-64
2021/03/20 10:39:37;;;;;;;5.50;3.28;;;25.30;23.00;;;;;;5077768;28;20021;-64
2021/03/20 10:42:09;;;;;;;6.40;3.58;;;25.50;23.50;;;;;;5047306;28;20055;-62
2021/03/20 10:44:42;;;;;;;8.65;2.90;;;27.40;22.60;;;;;;5044072;28;20466;-63
2021/03/20 10:47:30;;;;;;;8.70;4.53;;;29.10;22.20;;;;;;5042435;28;20078;-64
2021/03/20 10:50:01;;;;;;;6.10;3.70;;;31.70;20.60;;;;;;5046800;28;20040;-64
2021/03/20 10:52:32;;;;;;;7.55;3.95;;;31.70;21.10;;;;;;5046641;28;20060;-64
2021/03/20 10:55:02;;;;;;;6.55;3.67;;;32.40;20.30;;;;;;5051566;28;20084;-64
2021/03/20 10:57:30;;;;;;;5.65;2.70;;;32.50;20.50;;;;;;5049332;28;20043;-64
2021/03/20 10:59:56;;;;;;;6.65;3.88;;;31.80;20.60;;;;;;5061297;28;20368;-64
2021/03/20 11:02:30;;;;;;;6.03;3.30;;;32.00;20.80;;;;;;5044653;28;20475;-64
2021/03/20 11:05:22;;;;;;;9.23;5.57;;;32.70;20.40;;;;;;5048243;28;20044;-64
2021/03/20 11:08:24;;;;;;;6.35;3.28;;;33.50;19.90;;;;;;5051795;28;20033;-64
2021/03/20 11:11:13;;;;;;;7.95;4.68;;;33.10;19.90;;;;;;5045211;28;20051;-68
2021/03/20 11:13:51;;;;;;;7.35;4.28;;;32.70;19.60;;;;;;5049602;28;20456;-64
2021/03/20 11:16:22;;;;;;;8.45;4.10;;;32.60;20.20;;;;;;5049414;28;20037;-70
2021/03/20 11:19:22;;;;;;;7.68;4.75;;;33.10;19.80;;;;;;5051603;28;20079;-64
2021/03/20 11:21:50;;;;;;;6.93;3.92;;;33.10;20.20;;;;;;5040632;28;20048;-65
2021/03/20 11:24:24;;;;;;;7.22;4.07;;;33.50;20.20;;;;;;5049385;28;20029;-66
2021/03/20 11:26:52;;;;;;;5.20;3.05;;;33.70;19.90;;;;;;5046888;28;20024;-65
2021/03/20 11:29:27;;;;;;;6.65;3.00;;;32.80;19.90;;;;;;5048743;28;20494;-66
2021/03/20 11:32:02;;;;;;;5.93;3.75;;;31.40;20.30;;;;;;5047581;28;20110;-65
2021/03/20 11:34:39;;;;;;;5.60;3.08;;;31.00;20.90;;;;;;5048838;28;20090;-66
2021/03/20 11:37:15;;;;;;;5.82;3.72;;;30.40;21.00;;;;;;5046390;28;20029;-65
2021/03/20 11:39:41;;;;;;;7.03;4.22;;;29.30;21.10;;;;;;5049926;28;20064;-65
2021/03/20 11:42:14;;;;;;;5.78;3.40;;;28.30;21.80;;;;;;5047805;28;20415;-66
2021/03/20 11:44:49;;;;;;;7.05;3.60;;;28.50;22.00;;;;;;5049581;28;20025;-66
2021/03/20 11:47:33;;;;;;;6.65;4.00;;;28.60;21.70;;;;;;5040278;28;20431;-66
2021/03/20 11:50:01;;;;;;;6.55;3.97;;;28.60;22.10;;;;;;5045898;28;20426;-65
2021/03/20 11:52:36;;;;;;;5.82;3.75;;;26.70;22.10;;;;;;5048275;28;20116;-65
2021/03/20 11:55:12;;;;;;;5.60;3.65;;;25.40;22.80;;;;;;5046148;28;20056;-65
2021/03/20 11:57:40;;;;;;;5.50;3.53;;;25.00;23.30;;;;;;5047764;28;20017;-65
2021/03/20 12:00:27;;;;;;;6.00;3.70;;;23.30;24.80;;;;;;5046062;28;20025;-67
2021/03/20 12:02:53;;;;;;;6.25;3.70;;;21.90;26.10;;;;;;5062426;28;20397;-66
2021/03/20 12:05:24;;;;;;;6.03;3.47;;;21.10;27.40;;;;;;5063174;28;20181;-66
2021/03/20 12:07:51;;;;;;;6.22;3.47;;;20.40;27.80;;;;;;5049003;28;20383;-67
2021/03/20 12:10:25;;;;;;;11.13;5.32;;;19.80;28.00;;;;;;5046758;28;20475;-66
2021/03/20 12:12:56;;;;;;;9.63;5.55;;;19.20;28.80;;;;;;5047227;28;20108;-65
2021/03/20 12:15:32;;;;;;;9.82;5.80;;;19.10;29.30;;;;;;5044450;28;20021;-65
2021/03/20 12:18:13;;;;;;;9.50;4.95;;;19.10;28.70;;;;;;5048451;28;20389;-65
2021/03/20 12:20:43;;;;;;;8.52;3.95;;;18.90;28.80;;;;;;5049484;28;20056;-65
2021/03/20 12:23:21;;;;;;;6.40;4.03;;;18.40;29.00;;;;;;5041998;28;20037;-65
2021/03/20 12:25:55;;;;;;;6.82;3.85;;;18.10;30.00;;;;;;5046086;28;20098;-64
2021/03/20 12:28:26;;;;;;;6.80;3.70;;;18.00;30.20;;;;;;5047054;28;20074;-65
2021/03/20 12:31:07;;;;;;;7.63;4.05;;;17.90;30.70;;;;;;5027659;28;20132;-65
2021/03/20 12:34:08;;;;;;;6.20;4.25;;;18.00;30.90;;;;;;5041432;28;20387;-64
2021/03/20 12:36:42;;;;;;;6.80;4.10;;;17.80;31.20;;;;;;5046290;28;20045;-65
2021/03/20 12:39:13;;;;;;;7.10;4.35;;;17.50;31.00;;;;;;5042840;28;20037;-65
2021/03/20 12:41:40;;;;;;;8.60;4.53;;;17.40;31.50;;;;;;5035818;28;20096;-65
2021/03/20 12:44:24;;;;;;;6.90;4.13;;;17.50;31.60;;;;;;5044504;28;20411;-65
2021/03/20 12:46:53;;;;;;;6.35;3.83;;;17.40;32.20;;;;;;5059239;28;20124;-65
2021/03/20 12:49:25;;;;;;;6.13;3.90;;;17.40;31.80;;;;;;5033963;28;20083;-65
2021/03/20 12:51:58;;;;;;;7.10;4.07;;;17.40;31.30;;;;;;5060305;28;20111;-66
2021/03/20 12:54:29;;;;;;;6.57;3.60;;;17.20;31.70;;;;;;5048616;28;20140;-66
2021/03/20 12:56:54;;;;;;;6.13;3.80;;;16.90;32.70;;;;;;5063308;28;20025;-66
2021/03/20 12:59:20;;;;;;;8.98;4.45;;;16.70;32.70;;;;;;5066178;28;20043;-66
2021/03/20 13:01:46;;;;;;;9.52;4.55;;;16.70;32.50;;;;;;5054627;28;20047;-65
2021/03/20 13:04:17;;;;;;;6.43;4.07;;;16.60;32.90;;;;;;5037134;28;20042;-64
2021/03/20 13:06:43;;;;;;;6.20;4.07;;;16.60;32.90;;;;;;5045189;28;20139;-65
2021/03/20 13:09:09;;;;;;;7.05;4.53;;;16.50;33.40;;;;;;5046370;28;20100;-65
2021/03/20 13:11:35;;;;;;;6.25;3.72;;;16.50;33.60;;;;;;5046840;28;20057;-64
2021/03/20 13:14:02;;;;;;;5.93;3.70;;;16.70;33.40;;;;;;5042547;28;20368;-65
2021/03/20 13:16:28;;;;;;;6.72;4.10;;;16.90;32.60;;;;;;5047758;28;20041;-65
2021/03/20 13:18:54;;;;;;;7.20;4.10;;;16.80;32.90;;;;;;5047191;28;20497;-65
2021/03/20 13:21:21;;;;;;;6.57;4.03;;;16.70;32.10;;;;;;5037154;28;20044;-66
2021/03/20 13:23:47;;;;;;;8.23;3.80;;;16.60;32.50;;;;;;5042228;28;20040;-65
2021/03/20 13:26:13;;;;;;;6.72;3.78;;;16.60;33.00;;;;;;5042153;28;20025;-65
2021/03/20 13:28:38;;;;;;;7.18;3.47;;;16.60;33.20;;;;;;5046141;28;20030;-65
2021/03/20 13:31:04;;;;;;;6.15;3.35;;;16.60;32.80;;;;;;5037671;28;20033;-65
2021/03/20 13:33:30;;;;;;;5.75;3.33;;;16.70;32.00;;;;;;5062716;28;20398;-65